Saint Henry, Ohio
Current Conditions -  °F | °C
As of 5:15 PM on Saturday 25 Oct 2014 (Local Time) from KVES Reporting Station
Clear Clear  
Wind Chill: 73°   Ceiling: Unl
Heat Index: 73°   Visibility: 10mi
Dew Point: 45°   Wind: 13mph
Humidity: 36%   Direction: 290°WNW
Pressure: 29.87"   Gusts: 21mph
Location:  40.42°N, 84.64°W
Report Text: KVES 252115Z AUTO 29011G18KT 10SM CLR 23/07 A2987 RMK AO2
Loading
Personal Weather Stations






























Interactive Weather Map
Tropical Storm Tracking
New forecast layout! Learn more

10-Day Weather Forecast

Advertisements
Track Severe Weather on mobile